sensor_id;sensor_type;location;lat;lon;timestamp;pressure;altitude;pressure_sealevel;temperature;humidity
38558;BME280;24333;42.626;23.308;2023-07-13T00:05:06;69083.13;;;-148.95;51.57
38558;BME280;24333;42.626;23.308;2023-07-13T00:07:31;69078.97;;;-148.95;52.02
38558;BME280;24333;42.626;23.308;2023-07-13T00:09:57;69081.06;;;-148.95;52.45
38558;BME280;24333;42.626;23.308;2023-07-13T00:12:25;69093.50;;;-148.95;53.38
38558;BME280;24333;42.626;23.308;2023-07-13T00:14:53;69087.28;;;-148.95;54.15
38558;BME280;24333;42.626;23.308;2023-07-13T00:17:18;69093.50;;;-148.95;53.44
38558;BME280;24333;42.626;23.308;2023-07-13T00:19:43;69087.28;;;-148.95;52.17
38558;BME280;24333;42.626;23.308;2023-07-13T00:22:09;69076.91;;;-148.95;53.19
38558;BME280;24333;42.626;23.308;2023-07-13T00:24:34;69087.28;;;-148.95;52.10
38558;BME280;24333;42.626;23.308;2023-07-13T00:27:01;69089.34;;;-148.95;54.02
38558;BME280;24333;42.626;23.308;2023-07-13T00:29:26;69089.34;;;-148.95;53.52
38558;BME280;24333;42.626;23.308;2023-07-13T00:31:52;69089.34;;;-148.95;54.13
38558;BME280;24333;42.626;23.308;2023-07-13T00:34:17;69089.34;;;-148.95;54.13
38558;BME280;24333;42.626;23.308;2023-07-13T00:36:42;69091.41;;;-148.95;52.90
38558;BME280;24333;42.626;23.308;2023-07-13T00:39:08;69093.50;;;-148.95;53.79
38558;BME280;24333;42.626;23.308;2023-07-13T00:41:34;69097.63;;;-148.95;55.67
38558;BME280;24333;42.626;23.308;2023-07-13T00:43:59;69105.94;;;-148.95;55.57
38558;BME280;24333;42.626;23.308;2023-07-13T00:46:26;69116.31;;;-148.95;56.60
38558;BME280;24333;42.626;23.308;2023-07-13T00:51:36;69122.53;;;-148.95;57.96
38558;BME280;24333;42.626;23.308;2023-07-13T00:54:06;69137.03;;;-148.95;58.16
38558;BME280;24333;42.626;23.308;2023-07-13T00:56:35;69132.91;;;-148.95;60.00
38558;BME280;24333;42.626;23.308;2023-07-13T00:59:02;69141.19;;;-148.95;60.87
38558;BME280;24333;42.626;23.308;2023-07-13T01:01:29;69139.13;;;-148.95;61.72
38558;BME280;24333;42.626;23.308;2023-07-13T01:03:54;69139.13;;;-148.95;61.51
38558;BME280;24333;42.626;23.308;2023-07-13T01:06:19;69132.91;;;-148.95;59.41
38558;BME280;24333;42.626;23.308;2023-07-13T01:08:45;69132.91;;;-148.95;59.12
38558;BME280;24333;42.626;23.308;2023-07-13T01:11:10;69124.59;;;-148.95;60.40
38558;BME280;24333;42.626;23.308;2023-07-13T01:13:36;69122.53;;;-148.95;61.22
38558;BME280;24333;42.626;23.308;2023-07-13T01:16:05;69122.53;;;-148.95;59.70
38558;BME280;24333;42.626;23.308;2023-07-13T01:18:37;69126.69;;;-148.95;62.42
38558;BME280;24333;42.626;23.308;2023-07-13T01:21:04;69145.34;;;-148.95;62.53
38558;BME280;24333;42.626;23.308;2023-07-13T01:23:30;69155.72;;;-148.95;63.59
38558;BME280;24333;42.626;23.308;2023-07-13T01:25:57;69157.78;;;-148.95;62.54
38558;BME280;24333;42.626;23.308;2023-07-13T01:28:23;69151.56;;;-148.95;62.81
38558;BME280;24333;42.626;23.308;2023-07-13T01:30:52;69151.56;;;-148.95;61.93
38558;BME280;24333;42.626;23.308;2023-07-13T01:33:17;69143.28;;;-148.95;60.97
38558;BME280;24333;42.626;23.308;2023-07-13T01:35:45;69143.28;;;-148.95;61.33
38558;BME280;24333;42.626;23.308;2023-07-13T01:40:53;69134.97;;;-148.95;65.14
38558;BME280;24333;42.626;23.308;2023-07-13T01:43:19;69139.13;;;-148.95;66.40
38558;BME280;24333;42.626;23.308;2023-07-13T01:45:44;69137.03;;;-148.95;64.08
38558;BME280;24333;42.626;23.308;2023-07-13T01:48:10;69141.19;;;-148.95;66.17
38558;BME280;24333;42.626;23.308;2023-07-13T01:50:36;69134.97;;;-148.95;66.23
38558;BME280;24333;42.626;23.308;2023-07-13T01:53:02;69143.28;;;-148.95;66.57
38558;BME280;24333;42.626;23.308;2023-07-13T01:55:29;69147.41;;;-148.95;67.57
38558;BME280;24333;42.626;23.308;2023-07-13T01:57:55;69151.56;;;-148.95;64.41
38558;BME280;24333;42.626;23.308;2023-07-13T02:00:20;69155.72;;;-148.95;63.87
38558;BME280;24333;42.626;23.308;2023-07-13T02:02:46;69151.56;;;-148.95;65.74
38558;BME280;24333;42.626;23.308;2023-07-13T02:05:12;69151.56;;;-148.95;64.87
38558;BME280;24333;42.626;23.308;2023-07-13T02:10:13;69161.94;;;-148.95;65.46
38558;BME280;24333;42.626;23.308;2023-07-13T02:12:42;69170.22;;;-148.95;66.73
38558;BME280;24333;42.626;23.308;2023-07-13T02:15:08;69168.16;;;-148.95;64.74
38558;BME280;24333;42.626;23.308;2023-07-13T02:17:34;69172.31;;;-148.95;64.72
38558;BME280;24333;42.626;23.308;2023-07-13T02:20:00;69174.38;;;-148.95;66.46
38558;BME280;24333;42.626;23.308;2023-07-13T02:22:25;69176.44;;;-148.95;66.90
38558;BME280;24333;42.626;23.308;2023-07-13T02:24:51;69174.38;;;-148.95;70.32
38558;BME280;24333;42.626;23.308;2023-07-13T02:27:16;69180.59;;;-148.95;68.82
38558;BME280;24333;42.626;23.308;2023-07-13T02:29:41;69186.81;;;-148.95;69.31
38558;BME280;24333;42.626;23.308;2023-07-13T02:32:07;69197.19;;;-148.95;67.22
38558;BME280;24333;42.626;23.308;2023-07-13T02:34:33;69197.19;;;-148.95;69.97
38558;BME280;24333;42.626;23.308;2023-07-13T02:36:58;69199.28;;;-148.95;69.24
38558;BME280;24333;42.626;23.308;2023-07-13T02:39:24;69197.19;;;-148.95;68.07
38558;BME280;24333;42.626;23.308;2023-07-13T02:41:49;69193.03;;;-148.95;69.47
38558;BME280;24333;42.626;23.308;2023-07-13T02:44:15;69188.91;;;-148.95;68.01
38558;BME280;24333;42.626;23.308;2023-07-13T02:46:40;69190.97;;;-148.95;68.54
38558;BME280;24333;42.626;23.308;2023-07-13T02:49:06;69190.97;;;-148.95;69.74
38558;BME280;24333;42.626;23.308;2023-07-13T02:51:31;69190.97;;;-148.95;68.33
38558;BME280;24333;42.626;23.308;2023-07-13T02:54:00;69201.34;;;-148.95;70.02
38558;BME280;24333;42.626;23.308;2023-07-13T02:56:27;69205.50;;;-148.95;68.92
38558;BME280;24333;42.626;23.308;2023-07-13T02:58:53;69207.56;;;-148.95;67.77
38558;BME280;24333;42.626;23.308;2023-07-13T03:01:19;69201.34;;;-148.95;68.90
38558;BME280;24333;42.626;23.308;2023-07-13T03:03:46;69209.63;;;-148.95;69.36
38558;BME280;24333;42.626;23.308;2023-07-13T03:06:12;69213.78;;;-148.95;67.99
38558;BME280;24333;42.626;23.308;2023-07-13T03:08:38;69211.72;;;-148.95;70.61
38558;BME280;24333;42.626;23.308;2023-07-13T03:11:09;69211.72;;;-148.95;70.60
38558;BME280;24333;42.626;23.308;2023-07-13T03:13:36;69222.09;;;-148.95;69.87
38558;BME280;24333;42.626;23.308;2023-07-13T03:16:02;69211.72;;;-148.95;70.67
38558;BME280;24333;42.626;23.308;2023-07-13T03:18:28;69222.09;;;-148.95;69.80
38558;BME280;24333;42.626;23.308;2023-07-13T03:20:54;69209.63;;;-148.95;70.98
38558;BME280;24333;42.626;23.308;2023-07-13T03:23:21;69205.50;;;-148.95;71.33
38558;BME280;24333;42.626;23.308;2023-07-13T03:25:47;69207.56;;;-148.95;71.76
38558;BME280;24333;42.626;23.308;2023-07-13T03:28:13;69201.34;;;-148.95;72.27
38558;BME280;24333;42.626;23.308;2023-07-13T03:30:39;69188.91;;;-148.95;72.47
38558;BME280;24333;42.626;23.308;2023-07-13T03:33:04;69188.91;;;-148.95;74.18
38558;BME280;24333;42.626;23.308;2023-07-13T03:35:30;69190.97;;;-148.95;73.75
38558;BME280;24333;42.626;23.308;2023-07-13T03:37:57;69184.75;;;-148.95;74.64
38558;BME280;24333;42.626;23.308;2023-07-13T03:40:24;69195.13;;;-148.95;74.50
38558;BME280;24333;42.626;23.308;2023-07-13T03:42:51;69180.59;;;-148.95;75.91
38558;BME280;24333;42.626;23.308;2023-07-13T03:45:16;69190.97;;;-148.95;74.14
38558;BME280;24333;42.626;23.308;2023-07-13T03:47:42;69176.44;;;-148.95;73.65
38558;BME280;24333;42.626;23.308;2023-07-13T03:50:07;69164.00;;;-148.95;78.08
38558;BME280;24333;42.626;23.308;2023-07-13T03:52:33;69161.94;;;-148.95;78.14
38558;BME280;24333;42.626;23.308;2023-07-13T03:54:58;69166.09;;;-148.95;79.21
38558;BME280;24333;42.626;23.308;2023-07-13T03:57:23;69159.84;;;-148.95;79.01
38558;BME280;24333;42.626;23.308;2023-07-13T03:59:49;69149.50;;;-148.95;81.80
38558;BME280;24333;42.626;23.308;2023-07-13T04:02:14;69149.50;;;-148.95;81.93
38558;BME280;24333;42.626;23.308;2023-07-13T04:04:39;69139.13;;;-148.95;82.08
38558;BME280;24333;42.626;23.308;2023-07-13T04:07:06;69128.75;;;-148.95;82.75
38558;BME280;24333;42.626;23.308;2023-07-13T04:09:33;69126.69;;;-148.95;81.16
38558;BME280;24333;42.626;23.308;2023-07-13T04:11:59;69114.22;;;-148.95;82.27
38558;BME280;24333;42.626;23.308;2023-07-13T04:14:24;69108.00;;;-148.95;84.74
38558;BME280;24333;42.626;23.308;2023-07-13T04:16:49;69105.94;;;-148.95;84.94
38558;BME280;24333;42.626;23.308;2023-07-13T04:19:15;69099.72;;;-148.95;86.28
38558;BME280;24333;42.626;23.308;2023-07-13T04:21:40;69085.19;;;-148.95;82.54
38558;BME280;24333;42.626;23.308;2023-07-13T04:24:05;69070.69;;;-148.95;82.61
38558;BME280;24333;42.626;23.308;2023-07-13T04:26:31;69062.38;;;-148.95;82.10
38558;BME280;24333;42.626;23.308;2023-07-13T04:28:57;69052.00;;;-148.95;83.33
38558;BME280;24333;42.626;23.308;2023-07-13T04:31:22;69045.78;;;-148.95;83.93
38558;BME280;24333;42.626;23.308;2023-07-13T04:33:48;69041.66;;;-148.95;82.97
38558;BME280;24333;42.626;23.308;2023-07-13T04:36:15;69020.91;;;-148.95;80.82
38558;BME280;24333;42.626;23.308;2023-07-13T04:41:23;69004.31;;;-148.95;80.13
38558;BME280;24333;42.626;23.308;2023-07-13T04:43:48;69008.47;;;-148.95;76.00
38558;BME280;24333;42.626;23.308;2023-07-13T04:46:17;69002.25;;;-148.95;71.79
38558;BME280;24333;42.626;23.308;2023-07-13T04:48:44;68993.94;;;-148.95;71.69
38558;BME280;24333;42.626;23.308;2023-07-13T04:51:09;68977.34;;;-148.95;76.44
38558;BME280;24333;42.626;23.308;2023-07-13T04:53:35;68971.13;;;-148.95;76.30
38558;BME280;24333;42.626;23.308;2023-07-13T04:56:01;68966.97;;;-148.95;76.05
38558;BME280;24333;42.626;23.308;2023-07-13T04:58:27;68956.63;;;-148.95;77.42
38558;BME280;24333;42.626;23.308;2023-07-13T05:00:53;68952.47;;;-148.95;77.04
38558;BME280;24333;42.626;23.308;2023-07-13T05:03:18;68948.31;;;-148.95;79.28
38558;BME280;24333;42.626;23.308;2023-07-13T05:05:54;68935.88;;;-148.95;81.53
38558;BME280;24333;42.626;23.308;2023-07-13T05:10:55;68906.84;;;-148.95;79.02
38558;BME280;24333;42.626;23.308;2023-07-13T05:13:21;68904.75;;;-148.95;76.14
38558;BME280;24333;42.626;23.308;2023-07-13T05:15:55;68913.06;;;-148.95;72.62
38558;BME280;24333;42.626;23.308;2023-07-13T05:18:21;68923.44;;;-148.95;71.82
38558;BME280;24333;42.626;23.308;2023-07-13T05:28:32;68979.44;;;-148.95;70.61
38558;BME280;24333;42.626;23.308;2023-07-13T05:30:58;68973.22;;;-148.95;70.12
38558;BME280;24333;42.626;23.308;2023-07-13T05:33:24;68981.50;;;-148.95;71.89
38558;BME280;24333;42.626;23.308;2023-07-13T05:35:50;68985.66;;;-148.95;71.75
38558;BME280;24333;42.626;23.308;2023-07-13T05:40:54;68952.47;;;-148.95;73.51
38558;BME280;24333;42.626;23.308;2023-07-13T05:43:21;68944.16;;;-148.95;73.36
38558;BME280;24333;42.626;23.308;2023-07-13T05:45:47;68935.88;;;-148.95;72.79
38558;BME280;24333;42.626;23.308;2023-07-13T05:48:12;68921.34;;;-148.95;72.35
38558;BME280;24333;42.626;23.308;2023-07-13T05:50:38;68906.84;;;-148.95;71.54
38558;BME280;24333;42.626;23.308;2023-07-13T05:53:04;68888.19;;;-148.95;69.71
38558;BME280;24333;42.626;23.308;2023-07-13T05:55:30;68906.84;;;-148.95;69.74
38558;BME280;24333;42.626;23.308;2023-07-13T05:57:56;68900.63;;;-148.95;69.30
38558;BME280;24333;42.626;23.308;2023-07-13T06:00:23;68890.25;;;-148.95;68.72
38558;BME280;24333;42.626;23.308;2023-07-13T06:02:49;68873.66;;;-148.95;67.08
38558;BME280;24333;42.626;23.308;2023-07-13T06:05:14;68857.06;;;-148.95;65.23
38558;BME280;24333;42.626;23.308;2023-07-13T06:07:41;68832.19;;;-148.95;65.16
38558;BME280;24333;42.626;23.308;2023-07-13T06:10:06;68813.53;;;-148.95;63.17
38558;BME280;24333;42.626;23.308;2023-07-13T06:12:32;68799.00;;;-148.95;63.72
38558;BME280;24333;42.626;23.308;2023-07-13T06:14:57;68782.41;;;-148.95;64.36
38558;BME280;24333;42.626;23.308;2023-07-13T06:17:22;68786.56;;;-148.95;60.13
38558;BME280;24333;42.626;23.308;2023-07-13T06:19:48;68794.84;;;-148.95;58.80
38558;BME280;24333;42.626;23.308;2023-07-13T06:22:16;68809.38;;;-148.95;55.84
38558;BME280;24333;42.626;23.308;2023-07-13T06:24:43;68805.22;;;-148.95;53.18
38558;BME280;24333;42.626;23.308;2023-07-13T06:27:08;68790.72;;;-148.95;53.77
38558;BME280;24333;42.626;23.308;2023-07-13T06:29:33;68772.03;;;-148.95;53.17
38558;BME280;24333;42.626;23.308;2023-07-13T06:31:59;68757.53;;;-148.95;54.50
38558;BME280;24333;42.626;23.308;2023-07-13T06:34:24;68753.38;;;-148.95;51.95
38558;BME280;24333;42.626;23.308;2023-07-13T06:36:50;68747.16;;;-148.95;49.88
38558;BME280;24333;42.626;23.308;2023-07-13T06:39:16;68747.16;;;-148.95;51.63
38558;BME280;24333;42.626;23.308;2023-07-13T06:41:41;68755.44;;;-148.95;51.52
38558;BME280;24333;42.626;23.308;2023-07-13T06:44:06;68736.78;;;-148.95;51.89
38558;BME280;24333;42.626;23.308;2023-07-13T06:46:32;68732.63;;;-148.95;50.11
38558;BME280;24333;42.626;23.308;2023-07-13T06:48:58;68722.28;;;-148.95;51.41
38558;BME280;24333;42.626;23.308;2023-07-13T06:51:23;68707.75;;;-148.95;53.35
38558;BME280;24333;42.626;23.308;2023-07-13T06:53:49;68707.75;;;-148.95;53.79
38558;BME280;24333;42.626;23.308;2023-07-13T06:56:16;68711.91;;;-148.95;53.52
38558;BME280;24333;42.626;23.308;2023-07-13T06:58:41;68705.69;;;-148.95;53.66
38558;BME280;24333;42.626;23.308;2023-07-13T07:01:07;68695.31;;;-148.95;54.07
38558;BME280;24333;42.626;23.308;2023-07-13T07:03:33;68695.31;;;-148.95;55.88
38558;BME280;24333;42.626;23.308;2023-07-13T07:06:15;68672.50;;;-148.95;54.39
38558;BME280;24333;42.626;23.308;2023-07-13T07:08:41;68672.50;;;-148.95;56.84
38558;BME280;24333;42.626;23.308;2023-07-13T07:11:10;68670.44;;;-148.95;56.58
38558;BME280;24333;42.626;23.308;2023-07-13T07:13:36;68680.78;;;-148.95;54.87
38558;BME280;24333;42.626;23.308;2023-07-13T07:16:01;68670.44;;;-148.95;56.78
38558;BME280;24333;42.626;23.308;2023-07-13T07:18:27;68655.91;;;-148.95;56.18
38558;BME280;24333;42.626;23.308;2023-07-13T07:20:52;68672.50;;;-148.95;54.46
38558;BME280;24333;42.626;23.308;2023-07-13T07:23:19;68666.28;;;-148.95;54.31
38558;BME280;24333;42.626;23.308;2023-07-13T07:25:45;68674.56;;;-148.95;55.96
38558;BME280;24333;42.626;23.308;2023-07-13T07:28:14;68658.00;;;-148.95;55.30
38558;BME280;24333;42.626;23.308;2023-07-13T07:30:47;68653.84;;;-148.95;53.62
38558;BME280;24333;42.626;23.308;2023-07-13T07:33:13;68641.41;;;-148.95;54.39
38558;BME280;24333;42.626;23.308;2023-07-13T07:35:39;68639.31;;;-148.95;54.04
38558;BME280;24333;42.626;23.308;2023-07-13T07:38:04;68626.88;;;-148.95;55.11
38558;BME280;24333;42.626;23.308;2023-07-13T07:40:30;68610.28;;;-148.95;54.52
38558;BME280;24333;42.626;23.308;2023-07-13T07:42:56;68595.78;;;-148.95;53.77
38558;BME280;24333;42.626;23.308;2023-07-13T07:45:21;68587.47;;;-148.95;54.67
38558;BME280;24333;42.626;23.308;2023-07-13T07:47:47;68564.66;;;-148.95;55.61
38558;BME280;24333;42.626;23.308;2023-07-13T07:50:13;68533.56;;;-148.95;53.71
38558;BME280;24333;42.626;23.308;2023-07-13T07:52:39;68525.28;;;-148.95;52.48
38558;BME280;24333;42.626;23.308;2023-07-13T07:55:06;68521.13;;;-148.95;51.72
38558;BME280;24333;42.626;23.308;2023-07-13T07:57:32;68516.97;;;-148.95;51.18
38558;BME280;24333;42.626;23.308;2023-07-13T07:59:57;68508.69;;;-148.95;50.48
38558;BME280;24333;42.626;23.308;2023-07-13T08:02:24;68498.31;;;-148.95;50.35
38558;BME280;24333;42.626;23.308;2023-07-13T08:04:49;68487.94;;;-148.95;49.55
38558;BME280;24333;42.626;23.308;2023-07-13T08:07:15;68487.94;;;-148.95;48.93
38558;BME280;24333;42.626;23.308;2023-07-13T08:09:40;68490.03;;;-148.95;49.12
38558;BME280;24333;42.626;23.308;2023-07-13T08:12:06;68492.09;;;-148.95;50.18
38558;BME280;24333;42.626;23.308;2023-07-13T08:14:32;68475.50;;;-148.95;50.90
38558;BME280;24333;42.626;23.308;2023-07-13T08:16:58;68467.22;;;-148.95;49.50
38558;BME280;24333;42.626;23.308;2023-07-13T08:19:23;68458.91;;;-148.95;50.14
38558;BME280;24333;42.626;23.308;2023-07-13T08:21:49;68456.84;;;-148.95;49.32
38558;BME280;24333;42.626;23.308;2023-07-13T08:24:14;68446.47;;;-148.95;48.80
38558;BME280;24333;42.626;23.308;2023-07-13T08:26:40;68454.78;;;-148.95;50.04
38558;BME280;24333;42.626;23.308;2023-07-13T08:29:05;68429.88;;;-148.95;47.81
38558;BME280;24333;42.626;23.308;2023-07-13T08:31:30;68415.38;;;-148.95;47.13
38558;BME280;24333;42.626;23.308;2023-07-13T08:33:56;68409.16;;;-148.95;46.69
38558;BME280;24333;42.626;23.308;2023-07-13T08:36:21;68413.31;;;-148.95;47.55
38558;BME280;24333;42.626;23.308;2023-07-13T08:38:47;68407.06;;;-148.95;46.80
38558;BME280;24333;42.626;23.308;2023-07-13T08:41:14;68378.06;;;-148.95;48.50
38558;BME280;24333;42.626;23.308;2023-07-13T08:43:41;68375.97;;;-148.95;46.26
38558;BME280;24333;42.626;23.308;2023-07-13T08:48:54;68355.25;;;-148.95;46.37
38558;BME280;24333;42.626;23.308;2023-07-13T08:56:52;68359.38;;;-148.95;45.57
38558;BME280;24333;42.626;23.308;2023-07-13T08:59:22;68357.31;;;-148.95;46.27
38558;BME280;24333;42.626;23.308;2023-07-13T09:02:10;68342.78;;;-148.95;43.49
38558;BME280;24333;42.626;23.308;2023-07-13T09:04:56;68311.69;;;-148.95;43.80
38558;BME280;24333;42.626;23.308;2023-07-13T09:07:29;68305.47;;;-148.95;43.33
38558;BME280;24333;42.626;23.308;2023-07-13T09:10:11;68295.09;;;-148.95;43.94
38558;BME280;24333;42.626;23.308;2023-07-13T09:15:30;68293.03;;;-148.95;40.21
38558;BME280;24333;42.626;23.308;2023-07-13T09:18:00;68293.03;;;-148.95;40.21
38558;BME280;24333;42.626;23.308;2023-07-13T09:20:49;68282.66;;;-148.95;37.10
38558;BME280;24333;42.626;23.308;2023-07-13T09:23:20;68249.50;;;-148.95;38.38
38558;BME280;24333;42.626;23.308;2023-07-13T09:25:48;68247.41;;;-148.95;38.32
38558;BME280;24333;42.626;23.308;2023-07-13T09:28:19;68243.28;;;-148.95;38.07
38558;BME280;24333;42.626;23.308;2023-07-13T09:31:16;68237.06;;;-148.95;39.32
38558;BME280;24333;42.626;23.308;2023-07-13T09:33:43;68201.81;;;-148.95;39.04
38558;BME280;24333;42.626;23.308;2023-07-13T09:36:33;68191.44;;;-148.95;36.73
38558;BME280;24333;42.626;23.308;2023-07-13T09:39:25;68170.69;;;-148.95;36.32
38558;BME280;24333;42.626;23.308;2023-07-13T09:44:31;68123.00;;;-148.95;37.34
38558;BME280;24333;42.626;23.308;2023-07-13T09:46:58;68106.44;;;-148.95;37.24
38558;BME280;24333;42.626;23.308;2023-07-13T09:49:29;68062.88;;;-148.95;36.41
38558;BME280;24333;42.626;23.308;2023-07-13T10:06:15;67780.94;;;-148.95;33.18
38558;BME280;24333;42.626;23.308;2023-07-13T10:08:41;67762.25;;;-148.95;33.70
38558;BME280;24333;42.626;23.308;2023-07-13T10:11:19;67718.72;;;-148.95;32.69
38558;BME280;24333;42.626;23.308;2023-07-13T10:13:52;67654.47;;;-148.95;33.46
38558;BME280;24333;42.626;23.308;2023-07-13T10:16:19;67666.91;;;-148.95;31.34
38558;BME280;24333;42.626;23.308;2023-07-13T10:18:58;67679.34;;;-148.95;32.15
38558;BME280;24333;42.626;23.308;2023-07-13T10:21:39;67668.97;;;-148.95;31.77
38558;BME280;24333;42.626;23.308;2023-07-13T10:24:14;67598.50;;;-148.95;31.57
38558;BME280;24333;42.626;23.308;2023-07-13T10:26:47;67619.22;;;-148.95;31.18
38558;BME280;24333;42.626;23.308;2023-07-13T10:29:15;67685.56;;;-148.95;31.24
38558;BME280;24333;42.626;23.308;2023-07-13T10:31:41;67621.28;;;-148.95;30.56
38558;BME280;24333;42.626;23.308;2023-07-13T10:34:10;67530.06;;;-148.95;31.91
38558;BME280;24333;42.626;23.308;2023-07-13T10:36:44;67590.19;;;-148.95;30.28
38558;BME280;24333;42.626;23.308;2023-07-13T10:39:18;67513.50;;;-148.95;32.68
38558;BME280;24333;42.626;23.308;2023-07-13T10:41:46;67447.16;;;-148.95;29.76
38558;BME280;24333;42.626;23.308;2023-07-13T10:44:28;67503.13;;;-148.95;28.85
38558;BME280;24333;42.626;23.308;2023-07-13T10:46:57;67559.09;;;-148.95;29.37
38558;BME280;24333;42.626;23.308;2023-07-13T10:49:25;67563.25;;;-148.95;29.61
38558;BME280;24333;42.626;23.308;2023-07-13T10:51:52;67438.88;;;-148.95;30.82
38558;BME280;24333;42.626;23.308;2023-07-13T10:54:36;67320.72;;;-148.95;30.35
38558;BME280;24333;42.626;23.308;2023-07-13T10:57:18;67264.75;;;-148.95;29.05
38558;BME280;24333;42.626;23.308;2023-07-13T11:00:10;67183.91;;;-148.95;30.15
38558;BME280;24333;42.626;23.308;2023-07-13T11:02:35;67179.75;;;-148.95;26.31
38558;BME280;24333;42.626;23.308;2023-07-13T11:05:20;67273.03;;;-148.95;26.22
38558;BME280;24333;42.626;23.308;2023-07-13T11:08:15;67227.44;;;-148.95;26.80
38558;BME280;24333;42.626;23.308;2023-07-13T11:10:55;67277.19;;;-148.95;26.00
38558;BME280;24333;42.626;23.308;2023-07-13T11:18:51;67304.13;;;-148.95;26.74
38558;BME280;24333;42.626;23.308;2023-07-13T11:21:22;67353.88;;;-148.95;27.85
38558;BME280;24333;42.626;23.308;2023-07-13T11:24:01;67347.66;;;-148.95;28.55
38558;BME280;24333;42.626;23.308;2023-07-13T11:29:14;67148.66;;;-148.95;26.22
38558;BME280;24333;42.626;23.308;2023-07-13T11:31:58;67051.25;;;-148.95;25.97
38558;BME280;24333;42.626;23.308;2023-07-13T11:34:31;67032.59;;;-148.95;26.57
38558;BME280;24333;42.626;23.308;2023-07-13T11:37:00;67115.50;;;-148.95;28.03
38558;BME280;24333;42.626;23.308;2023-07-13T11:39:29;67260.59;;;-148.95;28.16
38558;BME280;24333;42.626;23.308;2023-07-13T11:41:59;67355.94;;;-148.95;29.91
38558;BME280;24333;42.626;23.308;2023-07-13T11:44:27;67362.16;;;-148.95;34.99
38558;BME280;24333;42.626;23.308;2023-07-13T11:46:58;67426.44;;;-148.95;30.37
38558;BME280;24333;42.626;23.308;2023-07-13T11:49:30;67451.31;;;-148.95;31.91
38558;BME280;24333;42.626;23.308;2023-07-13T11:51:57;67469.97;;;-148.95;30.37
38558;BME280;24333;42.626;23.308;2023-07-13T11:54:29;67488.63;;;-148.95;32.81
38558;BME280;24333;42.626;23.308;2023-07-13T11:57:02;67509.34;;;-148.95;31.15
38558;BME280;24333;42.626;23.308;2023-07-13T11:59:40;67540.44;;;-148.95;30.99
38558;BME280;24333;42.626;23.308;2023-07-13T12:02:16;67554.97;;;-148.95;30.95
38558;BME280;24333;42.626;23.308;2023-07-13T12:04:43;67557.03;;;-148.95;36.40
38558;BME280;24333;42.626;23.308;2023-07-13T12:07:18;67592.28;;;-148.95;31.61
38558;BME280;24333;42.626;23.308;2023-07-13T12:09:43;67600.56;;;-148.95;33.48
38558;BME280;24333;42.626;23.308;2023-07-13T12:12:13;67617.16;;;-148.95;31.56
38558;BME280;24333;42.626;23.308;2023-07-13T12:14:40;67635.81;;;-148.95;32.64
38558;BME280;24333;42.626;23.308;2023-07-13T12:17:18;67662.75;;;-148.95;31.76
38558;BME280;24333;42.626;23.308;2023-07-13T12:19:44;67679.34;;;-148.95;31.39
38558;BME280;24333;42.626;23.308;2023-07-13T12:22:12;67691.78;;;-148.95;31.68
38558;BME280;24333;42.626;23.308;2023-07-13T12:24:40;67695.91;;;-148.95;32.19
38558;BME280;24333;42.626;23.308;2023-07-13T12:27:13;67708.38;;;-148.95;30.93
38558;BME280;24333;42.626;23.308;2023-07-13T12:29:50;67706.28;;;-148.95;31.83
38558;BME280;24333;42.626;23.308;2023-07-13T12:32:17;67716.66;;;-148.95;31.44
38558;BME280;24333;42.626;23.308;2023-07-13T12:35:01;67729.09;;;-148.95;30.84
38558;BME280;24333;42.626;23.308;2023-07-13T12:37:34;67720.81;;;-148.95;33.88
38558;BME280;24333;42.626;23.308;2023-07-13T12:40:00;67720.81;;;-148.95;32.37
38558;BME280;24333;42.626;23.308;2023-07-13T12:42:28;67720.81;;;-148.95;32.27
38558;BME280;24333;42.626;23.308;2023-07-13T12:44:57;67718.72;;;-148.95;31.42
38558;BME280;24333;42.626;23.308;2023-07-13T12:47:24;67722.88;;;-148.95;31.81
38558;BME280;24333;42.626;23.308;2023-07-13T12:49:54;67722.88;;;-148.95;31.38
38558;BME280;24333;42.626;23.308;2023-07-13T12:52:29;67704.22;;;-148.95;38.01
38558;BME280;24333;42.626;23.308;2023-07-13T12:55:03;67718.72;;;-148.95;32.16
38558;BME280;24333;42.626;23.308;2023-07-13T12:57:29;67712.50;;;-148.95;35.03
38558;BME280;24333;42.626;23.308;2023-07-13T12:59:55;67714.59;;;-148.95;34.32
38558;BME280;24333;42.626;23.308;2023-07-13T13:02:32;67716.66;;;-148.95;32.39
38558;BME280;24333;42.626;23.308;2023-07-13T13:04:59;67724.94;;;-148.95;31.75
38558;BME280;24333;42.626;23.308;2023-07-13T13:07:25;67729.09;;;-148.95;31.99
38558;BME280;24333;42.626;23.308;2023-07-13T13:09:51;67727.03;;;-148.95;33.53
38558;BME280;24333;42.626;23.308;2023-07-13T13:12:18;67720.81;;;-148.95;33.13
38558;BME280;24333;42.626;23.308;2023-07-13T13:14:43;67708.38;;;-148.95;36.00
38558;BME280;24333;42.626;23.308;2023-07-13T13:17:19;67718.72;;;-148.95;32.50
38558;BME280;24333;42.626;23.308;2023-07-13T13:19:45;67724.94;;;-148.95;32.06
38558;BME280;24333;42.626;23.308;2023-07-13T13:22:11;67716.66;;;-148.95;34.71
38558;BME280;24333;42.626;23.308;2023-07-13T13:24:36;67714.59;;;-148.95;31.21
38558;BME280;24333;42.626;23.308;2023-07-13T13:27:02;67712.50;;;-148.95;31.33
38558;BME280;24333;42.626;23.308;2023-07-13T13:29:27;67720.81;;;-148.95;31.52
38558;BME280;24333;42.626;23.308;2023-07-13T13:31:54;67712.50;;;-148.95;32.07
38558;BME280;24333;42.626;23.308;2023-07-13T13:34:21;67718.72;;;-148.95;31.95
38558;BME280;24333;42.626;23.308;2023-07-13T13:36:50;67720.81;;;-148.95;32.43
38558;BME280;24333;42.626;23.308;2023-07-13T13:41:45;67708.38;;;-148.95;33.97